createdAt,value
2024-03-16T00:00:52.042Z,99883.41
2024-03-16T00:03:19.907Z,99890.31
2024-03-16T00:05:47.629Z,99898.06
2024-03-16T00:08:14.372Z,99903.25
2024-03-16T00:10:41.334Z,99904.09
2024-03-16T00:13:08.235Z,99906.69
2024-03-16T00:15:35.068Z,99904.09
2024-03-16T00:18:01.872Z,99913.56
2024-03-16T00:20:28.626Z,99919.59
2024-03-16T00:22:55.373Z,99927.34
2024-03-16T00:25:22.127Z,99929.06
2024-03-16T00:27:50.788Z,99935.97
2024-03-16T00:30:17.530Z,99944.59
2024-03-16T00:32:44.287Z,99950.63
2024-03-16T00:35:11.201Z,99963.53
2024-03-16T00:37:38.011Z,99971.28
2024-03-16T00:40:08.648Z,99975.59
2024-03-16T00:42:35.475Z,99976.47
2024-03-16T00:45:02.533Z,99987.66
2024-03-16T00:47:29.272Z,99984.22
2024-03-16T00:49:55.966Z,99988.50
2024-03-16T00:52:22.733Z,99991.09
2024-03-16T00:54:49.465Z,99993.69
2024-03-16T00:57:16.267Z,99992.84
2024-03-16T00:59:42.982Z,99991.97
2024-03-16T01:02:09.905Z,99998.88
2024-03-16T01:04:38.003Z,100008.34
2024-03-16T01:07:04.777Z,100016.97
2024-03-16T01:09:32.123Z,100004.03
2024-03-16T01:11:58.840Z,100017.81
2024-03-16T01:14:25.573Z,100017.81
2024-03-16T01:16:52.255Z,100014.38
2024-03-16T01:19:19.816Z,100022.13
2024-03-16T01:21:46.543Z,100035.06
2024-03-16T01:24:13.316Z,100020.41
2024-03-16T01:26:40.001Z,100031.59
2024-03-16T01:29:11.893Z,100041.09
2024-03-16T01:31:38.733Z,100029.03
2024-03-16T01:34:05.505Z,100021.28
2024-03-16T01:36:32.299Z,100039.38
2024-03-16T01:38:59.044Z,100046.28
2024-03-16T01:41:26.050Z,100046.28
2024-03-16T01:43:52.839Z,100049.72
2024-03-16T01:46:19.774Z,100044.53
2024-03-16T01:48:47.587Z,100052.31
2024-03-16T01:51:14.307Z,100063.50
2024-03-16T01:53:41.038Z,100072.13
2024-03-16T01:56:07.843Z,100069.53
2024-03-16T01:58:44.520Z,100068.66
2024-03-16T02:01:11.410Z,100069.50
2024-03-16T02:03:38.874Z,100086.75
2024-03-16T02:06:06.655Z,100095.38
2024-03-16T02:08:33.428Z,100102.25
2024-03-16T02:11:00.270Z,100105.69
2024-03-16T02:13:26.962Z,100110.88
2024-03-16T02:15:53.638Z,100108.28
2024-03-16T02:18:20.319Z,100108.28
2024-03-16T02:20:47.282Z,100114.31
2024-03-16T02:23:14.391Z,100119.47
2024-03-16T02:25:41.072Z,100119.41
2024-03-16T02:28:09.387Z,100126.31
2024-03-16T02:30:37.335Z,100121.16
2024-03-16T02:33:08.262Z,100128.91
2024-03-16T02:35:34.955Z,100129.75
2024-03-16T02:38:01.627Z,100131.47
2024-03-16T02:40:29.483Z,100135.84
2024-03-16T02:42:56.388Z,100132.34
2024-03-16T02:45:23.226Z,100133.22
2024-03-16T02:47:50.081Z,100139.28
2024-03-16T02:50:16.880Z,100149.63
2024-03-16T02:52:43.616Z,100149.66
2024-03-16T02:55:10.627Z,100157.41
2024-03-16T02:57:37.535Z,100153.09
2024-03-16T03:00:12.429Z,100146.22
2024-03-16T03:02:39.918Z,100145.34
2024-03-16T03:05:12.315Z,100153.13
2024-03-16T03:07:39.544Z,100151.41
2024-03-16T03:10:08.754Z,100160.00
2024-03-16T03:12:35.647Z,100170.34
2024-03-16T03:15:02.493Z,100171.22
2024-03-16T03:17:29.231Z,100176.41
2024-03-16T03:19:55.943Z,100174.66
2024-03-16T03:22:22.598Z,100171.22
2024-03-16T03:24:49.268Z,100177.25
2024-03-16T03:27:16.063Z,100185.00
2024-03-16T03:29:42.730Z,100178.97
2024-03-16T03:32:09.389Z,100182.44
2024-03-16T03:34:36.147Z,100183.28
2024-03-16T03:37:02.942Z,100187.59
2024-03-16T03:39:29.730Z,100195.34
2024-03-16T03:41:56.572Z,100192.75
2024-03-16T03:44:25.455Z,100194.47
2024-03-16T03:46:52.923Z,100196.22
2024-03-16T03:49:37.321Z,100200.53
2024-03-16T03:52:05.887Z,100209.13
2024-03-16T03:54:34.659Z,100204.81
2024-03-16T03:57:01.636Z,100206.53
2024-03-16T03:59:28.656Z,100210.84
2024-03-16T04:01:55.524Z,100225.47
2024-03-16T04:04:23.216Z,100231.50
2024-03-16T04:06:50.160Z,100226.31
2024-03-16T04:09:16.912Z,100223.69
2024-03-16T04:11:43.684Z,100221.94
2024-03-16T04:14:10.413Z,100219.34
2024-03-16T04:16:37.107Z,100223.63
2024-03-16T04:19:04.651Z,100221.88
2024-03-16T04:21:31.973Z,100220.97
2024-03-16T04:23:58.752Z,100226.94
2024-03-16T04:26:26.320Z,100223.41
2024-03-16T04:28:53.183Z,100225.94
2024-03-16T04:31:19.852Z,100225.00
2024-03-16T04:33:46.707Z,100228.34
2024-03-16T04:36:14.020Z,100227.41
2024-03-16T04:38:41.099Z,100225.59
2024-03-16T04:41:07.861Z,100233.28
2024-03-16T04:43:35.291Z,100229.75
2024-03-16T04:46:02.301Z,100241.69
2024-03-16T04:48:29.142Z,100241.59
2024-03-16T04:50:57.180Z,100247.50
2024-03-16T04:53:24.240Z,100249.94
2024-03-16T04:55:53.704Z,100255.03
2024-03-16T04:58:20.583Z,100261.78
2024-03-16T05:00:47.581Z,100259.13
2024-03-16T05:03:14.443Z,100262.47
2024-03-16T05:05:41.209Z,100266.59
2024-03-16T05:08:08.956Z,100268.19
2024-03-16T05:10:36.042Z,100272.31
2024-03-16T05:13:02.990Z,100275.66
2024-03-16T05:15:29.912Z,100276.41
2024-03-16T05:17:57.054Z,100271.16
2024-03-16T05:20:23.910Z,100276.22
2024-03-16T05:22:50.577Z,100281.25
2024-03-16T05:25:17.503Z,100288.03
2024-03-16T05:27:44.357Z,100291.34
2024-03-16T05:30:12.819Z,100299.75
2024-03-16T05:32:42.260Z,100299.63
2024-03-16T05:35:09.864Z,100305.50
2024-03-16T05:37:37.104Z,100319.09
2024-03-16T05:40:04.772Z,100324.13
2024-03-16T05:42:32.397Z,100319.72
2024-03-16T05:45:00.977Z,100328.22
2024-03-16T05:47:28.048Z,100335.81
2024-03-16T05:49:55.919Z,100334.84
2024-03-16T05:52:22.658Z,100332.94
2024-03-16T05:54:49.461Z,100340.56
2024-03-16T05:57:18.675Z,100346.50
2024-03-16T05:59:45.499Z,100348.09
2024-03-16T06:02:12.333Z,100348.84
2024-03-16T06:04:39.166Z,100358.16
2024-03-16T06:07:06.619Z,100357.19
2024-03-16T06:09:33.490Z,100363.09
2024-03-16T06:12:00.562Z,100368.16
2024-03-16T06:14:27.204Z,100363.78
2024-03-16T06:16:54.544Z,100368.84
2024-03-16T06:19:21.369Z,100370.50
2024-03-16T06:21:48.133Z,100372.13
2024-03-16T06:24:15.007Z,100376.31
2024-03-16T06:26:42.771Z,100377.84
2024-03-16T06:29:13.435Z,100377.81
2024-03-16T06:31:42.373Z,100375.16
2024-03-16T06:34:09.612Z,100374.19
2024-03-16T06:36:37.572Z,100380.97
2024-03-16T06:39:12.026Z,100392.03
2024-03-16T06:41:39.075Z,100382.53
2024-03-16T06:44:05.962Z,100386.75
2024-03-16T06:46:33.498Z,100389.28
2024-03-16T06:49:06.947Z,100386.69
2024-03-16T06:51:34.602Z,100389.25
2024-03-16T06:54:01.710Z,100387.50
2024-03-16T06:56:28.424Z,100388.34
2024-03-16T06:58:55.078Z,100384.00
2024-03-16T07:01:22.123Z,100384.81
2024-03-16T07:03:49.067Z,100382.25
2024-03-16T07:06:15.836Z,100390.84
2024-03-16T07:08:42.537Z,100394.28
2024-03-16T07:11:09.297Z,100386.56
2024-03-16T07:13:36.574Z,100394.34
2024-03-16T07:16:03.463Z,100392.69
2024-03-16T07:18:30.330Z,100409.88
2024-03-16T07:21:00.080Z,100413.41
2024-03-16T07:23:27.786Z,100416.94
2024-03-16T07:25:54.451Z,100419.59
2024-03-16T07:28:21.180Z,100423.13
2024-03-16T07:30:47.897Z,100426.72
2024-03-16T07:33:15.182Z,100414.88
2024-03-16T07:35:43.740Z,100413.28
2024-03-16T07:38:10.468Z,100404.84
2024-03-16T07:40:37.303Z,100415.34
2024-03-16T07:43:04.266Z,100420.69
2024-03-16T07:45:31.066Z,100427.81
2024-03-16T07:48:00.009Z,100430.66
2024-03-16T07:50:26.795Z,100441.28
2024-03-16T07:52:53.926Z,100438.13
2024-03-16T07:55:20.643Z,100441.88
2024-03-16T07:57:47.430Z,100450.78
2024-03-16T08:00:14.631Z,100448.53
2024-03-16T08:02:41.629Z,100453.06
2024-03-16T08:05:12.436Z,100456.81
2024-03-16T08:07:43.103Z,100461.34
2024-03-16T08:10:13.370Z,100462.47
2024-03-16T08:12:40.979Z,100457.53
2024-03-16T08:15:09.262Z,100460.25
2024-03-16T08:17:35.937Z,100467.31
2024-03-16T08:20:02.676Z,100466.56
2024-03-16T08:22:29.394Z,100467.56
2024-03-16T08:24:56.179Z,100478.06
2024-03-16T08:27:25.927Z,100475.69
2024-03-16T08:29:56.399Z,100474.97
2024-03-16T08:32:23.698Z,100474.22
2024-03-16T08:34:53.138Z,100481.22
2024-03-16T08:37:19.949Z,100479.63
2024-03-16T08:39:47.273Z,100480.63
2024-03-16T08:42:15.700Z,100486.75
2024-03-16T08:44:42.480Z,100479.97
2024-03-16T08:47:09.588Z,100469.72
2024-03-16T08:49:36.335Z,100469.81
2024-03-16T08:52:03.177Z,100468.19
2024-03-16T08:54:31.232Z,100466.53
2024-03-16T08:56:58.120Z,100465.75
2024-03-16T08:59:24.794Z,100470.13
2024-03-16T09:01:51.668Z,100468.50
2024-03-16T09:04:18.722Z,100460.84
2024-03-16T09:06:46.347Z,100460.03
2024-03-16T09:09:13.183Z,100454.06
2024-03-16T09:11:40.047Z,100454.16
2024-03-16T09:14:08.644Z,100462.03
2024-03-16T09:16:41.932Z,100465.59
2024-03-16T09:19:09.098Z,100474.31
2024-03-16T09:21:35.953Z,100470.13
2024-03-16T09:24:02.771Z,100472.88
2024-03-16T09:26:29.447Z,100462.63
2024-03-16T09:28:56.211Z,100471.38
2024-03-16T09:31:28.689Z,100481.81
2024-03-16T09:33:55.556Z,100477.56
2024-03-16T09:36:22.375Z,100484.50
2024-03-16T09:38:49.237Z,100490.56
2024-03-16T09:41:20.753Z,100502.72
